createdAt,value
2018-09-04T00:00:35.161Z,1010.00
2018-09-04T00:01:35.244Z,1010.01
2018-09-04T00:02:35.173Z,1009.99
2018-09-04T00:03:35.167Z,1009.95
2018-09-04T00:04:35.119Z,1009.96
2018-09-04T00:05:35.103Z,1009.94
2018-09-04T00:06:35.204Z,1009.95
2018-09-04T00:07:38.117Z,1009.93
2018-09-04T00:08:35.139Z,1009.95
2018-09-04T00:10:49.684Z,1009.96
2018-09-04T00:11:49.712Z,1009.95
2018-09-04T00:12:52.740Z,1010.00
2018-09-04T00:13:49.524Z,1009.97
2018-09-04T00:14:49.561Z,1009.93
2018-09-04T00:15:49.508Z,1009.95
2018-09-04T00:16:49.466Z,1009.96
2018-09-04T00:17:49.472Z,1009.96
2018-09-04T00:18:49.461Z,1009.96
2018-09-04T00:19:49.505Z,1009.96
2018-09-04T00:20:52.532Z,1009.94
2018-09-04T00:21:49.525Z,1009.91
2018-09-04T00:22:49.453Z,1009.91
2018-09-04T00:23:49.419Z,1009.87
2018-09-04T00:24:49.409Z,1009.86
2018-09-04T00:25:49.394Z,1009.86
2018-09-04T00:26:49.476Z,1009.83
2018-09-04T00:27:49.400Z,1009.86
2018-09-04T00:28:49.399Z,1009.84
2018-09-04T00:29:49.328Z,1009.79
2018-09-04T00:30:49.376Z,1009.80
2018-09-04T00:31:49.341Z,1009.78
2018-09-04T00:32:49.400Z,1009.81
2018-09-04T00:33:49.411Z,1009.79
2018-09-04T00:34:49.363Z,1009.76
2018-09-04T00:35:49.328Z,1009.75
2018-09-04T00:36:49.287Z,1009.77
2018-09-04T00:37:49.307Z,1009.76
2018-09-04T00:38:49.293Z,1009.74
2018-09-04T00:39:49.220Z,1009.76
2018-09-04T00:40:49.284Z,1009.75
2018-09-04T00:41:49.279Z,1009.79
2018-09-04T00:42:49.221Z,1009.78
2018-09-04T00:43:49.224Z,1009.77
2018-09-04T00:44:49.224Z,1009.79
2018-09-04T00:45:49.185Z,1009.74
2018-09-04T00:46:49.217Z,1009.72
2018-09-04T00:47:53.894Z,1009.68
2018-09-04T00:48:49.196Z,1009.66
2018-09-04T00:49:49.126Z,1009.73
2018-09-04T00:50:49.203Z,1009.69
2018-09-04T00:51:49.144Z,1009.69
2018-09-04T00:52:49.200Z,1009.69
2018-09-04T00:53:49.094Z,1009.65
2018-09-04T00:54:49.086Z,1009.72
2018-09-04T00:55:49.152Z,1009.68
2018-09-04T00:56:49.092Z,1009.71
2018-09-04T00:57:49.048Z,1009.71
2018-09-04T00:58:49.084Z,1009.75
2018-09-04T00:59:49.024Z,1009.74
2018-09-04T01:00:49.085Z,1009.74
2018-09-04T01:01:49.092Z,1009.74
2018-09-04T01:02:49.099Z,1009.76
2018-09-04T01:03:48.996Z,1009.79
2018-09-04T01:04:49.018Z,1009.74
2018-09-04T01:05:48.979Z,1009.77
2018-09-04T01:06:48.935Z,1009.71
2018-09-04T01:07:49.003Z,1009.77
2018-09-04T01:08:48.951Z,1009.71
2018-09-04T01:09:48.928Z,1009.74
2018-09-04T01:10:48.855Z,1009.77
2018-09-04T01:11:48.911Z,1009.77
2018-09-04T01:12:48.829Z,1009.76
2018-09-04T01:13:48.912Z,1009.77
2018-09-04T01:14:48.929Z,1009.74
2018-09-04T01:15:48.921Z,1009.78
2018-09-04T01:16:48.894Z,1009.77
2018-09-04T01:17:48.822Z,1009.74
2018-09-04T01:18:48.820Z,1009.75
2018-09-04T01:19:48.893Z,1009.76
2018-09-04T01:20:48.831Z,1009.76
2018-09-04T01:21:48.764Z,1009.81
2018-09-04T01:22:48.859Z,1009.82
2018-09-04T01:23:48.792Z,1009.82
2018-09-04T01:24:51.732Z,1009.83
2018-09-04T01:25:48.816Z,1009.86
2018-09-04T01:26:48.787Z,1009.83
2018-09-04T01:27:48.764Z,1009.87
2018-09-04T01:28:48.735Z,1009.89
2018-09-04T01:29:48.676Z,1009.89
2018-09-04T01:30:48.726Z,1009.89
2018-09-04T01:31:48.729Z,1009.94
2018-09-04T01:32:51.668Z,1009.96
2018-09-04T01:33:48.628Z,1009.92
2018-09-04T01:34:48.643Z,1009.92
2018-09-04T01:35:48.634Z,1009.97
2018-09-04T01:36:48.625Z,1009.96
2018-09-04T01:38:57.872Z,1009.94
2018-09-04T01:39:57.591Z,1009.94
2018-09-04T01:42:07.050Z,1009.95
2018-09-04T01:43:07.055Z,1009.93
2018-09-04T01:44:06.948Z,1009.93
2018-09-04T01:45:06.864Z,1009.93
2018-09-04T01:46:06.839Z,1009.91
2018-09-04T01:47:09.825Z,1009.90
2018-09-04T01:48:06.889Z,1009.92
2018-09-04T01:49:11.541Z,1009.88
2018-09-04T01:50:06.774Z,1009.88
2018-09-04T01:51:06.791Z,1009.89
2018-09-04T01:52:06.797Z,1009.92
2018-09-04T01:53:09.752Z,1009.94
2018-09-04T01:54:07.000Z,1009.95
2018-09-04T01:55:06.699Z,1009.95
2018-09-04T01:56:06.800Z,1009.93
2018-09-04T01:57:06.743Z,1009.92
2018-09-04T01:58:06.719Z,1009.90
2018-09-04T01:59:06.720Z,1009.90
2018-09-04T02:00:06.737Z,1009.85
2018-09-04T02:01:06.683Z,1009.85
2018-09-04T02:02:06.656Z,1009.82
2018-09-04T02:03:06.637Z,1009.85
2018-09-04T02:04:06.669Z,1009.86
2018-09-04T02:05:06.661Z,1009.82
2018-09-04T02:06:06.672Z,1009.84
2018-09-04T02:07:06.639Z,1009.84
2018-09-04T02:08:06.664Z,1009.81
2018-09-04T02:09:06.591Z,1009.83
2018-09-04T02:10:06.604Z,1009.79
2018-09-04T02:11:06.618Z,1009.79
2018-09-04T02:12:06.623Z,1009.78
2018-09-04T02:13:06.633Z,1009.78
2018-09-04T02:14:06.553Z,1009.76
2018-09-04T02:15:06.513Z,1009.78
2018-09-04T02:16:06.528Z,1009.81
2018-09-04T02:17:06.469Z,1009.79
2018-09-04T02:18:06.569Z,1009.81
2018-09-04T02:19:06.539Z,1009.80
2018-09-04T02:20:06.492Z,1009.80
2018-09-04T02:21:06.441Z,1009.79
2018-09-04T02:22:06.432Z,1009.77
2018-09-04T02:23:06.447Z,1009.79
2018-09-04T02:24:06.441Z,1009.76
2018-09-04T02:25:06.420Z,1009.79
2018-09-04T02:26:06.466Z,1009.75
2018-09-04T02:27:06.450Z,1009.78
2018-09-04T02:28:06.371Z,1009.76
2018-09-04T02:29:06.419Z,1009.76
2018-09-04T02:30:06.398Z,1009.78
2018-09-04T02:31:06.368Z,1009.77
2018-09-04T02:32:06.347Z,1009.80
2018-09-04T02:33:06.451Z,1009.79
2018-09-04T02:34:06.347Z,1009.80
2018-09-04T02:35:06.315Z,1009.81
2018-09-04T02:36:06.360Z,1009.77
2018-09-04T02:37:06.318Z,1009.74
2018-09-04T02:38:06.275Z,1009.73
2018-09-04T02:39:09.335Z,1009.75
2018-09-04T02:40:06.320Z,1009.71
2018-09-04T02:41:06.255Z,1009.70
2018-09-04T02:43:16.447Z,1009.65
2018-09-04T02:44:15.910Z,1009.64
2018-09-04T02:45:15.873Z,1009.63
2018-09-04T02:46:15.909Z,1009.61
2018-09-04T02:47:15.928Z,1009.65
2018-09-04T02:48:15.885Z,1009.61
2018-09-04T02:49:15.848Z,1009.61
2018-09-04T02:50:20.557Z,1009.63
2018-09-04T02:52:25.386Z,1009.64
2018-09-04T02:53:25.306Z,1009.65
2018-09-04T02:54:25.215Z,1009.62
2018-09-04T02:55:25.240Z,1009.63
2018-09-04T02:56:25.117Z,1009.62
2018-09-04T02:57:28.200Z,1009.71
2018-09-04T02:58:25.193Z,1009.71
2018-09-04T02:59:25.148Z,1009.70
2018-09-04T03:00:25.091Z,1009.76
2018-09-04T03:01:25.041Z,1009.73
2018-09-04T03:02:25.154Z,1009.78
2018-09-04T03:03:25.065Z,1009.72
2018-09-04T03:04:25.174Z,1009.73
2018-09-04T03:05:25.065Z,1009.73
2018-09-04T03:06:25.036Z,1009.76
2018-09-04T03:07:25.004Z,1009.71
2018-09-04T03:08:25.031Z,1009.71
2018-09-04T03:09:25.005Z,1009.66
2018-09-04T03:10:25.001Z,1009.67
2018-09-04T03:11:25.005Z,1009.67
2018-09-04T03:12:24.946Z,1009.72
2018-09-04T03:13:24.971Z,1009.74
2018-09-04T03:14:24.937Z,1009.70
2018-09-04T03:15:24.896Z,1009.74
2018-09-04T03:16:24.948Z,1009.75
2018-09-04T03:17:24.932Z,1009.71
2018-09-04T03:18:24.917Z,1009.74
2018-09-04T03:19:24.908Z,1009.71
2018-09-04T03:20:24.843Z,1009.74
2018-09-04T03:21:24.838Z,1009.73
2018-09-04T03:22:24.886Z,1009.71
2018-09-04T03:23:25.919Z,1009.75
2018-09-04T03:24:24.848Z,1009.70
2018-09-04T03:25:24.887Z,1009.71
2018-09-04T03:26:24.794Z,1009.71
2018-09-04T03:27:24.793Z,1009.71
2018-09-04T03:28:24.832Z,1009.74
2018-09-04T03:29:24.768Z,1009.76
2018-09-04T03:30:24.745Z,1009.75
2018-09-04T03:31:24.776Z,1009.70
2018-09-04T03:32:24.766Z,1009.72
2018-09-04T03:33:24.736Z,1009.67
2018-09-04T03:34:24.851Z,1009.66
2018-09-04T03:35:24.681Z,1009.68
2018-09-04T03:36:24.670Z,1009.69
2018-09-04T03:37:24.689Z,1009.70
2018-09-04T03:38:24.642Z,1009.68
2018-09-04T03:39:24.729Z,1009.71
2018-09-04T03:40:24.657Z,1009.67
2018-09-04T03:41:24.614Z,1009.67
2018-09-04T03:42:24.609Z,1009.71
2018-09-04T03:43:24.589Z,1009.73
2018-09-04T03:44:36.143Z,1009.75
2018-09-04T03:45:24.600Z,1009.76
2018-09-04T03:46:24.676Z,1009.76
2018-09-04T03:47:24.557Z,1009.74
2018-09-04T03:48:24.562Z,1009.67
2018-09-04T03:49:24.604Z,1009.69
2018-09-04T03:50:29.267Z,1009.72
2018-09-04T03:51:24.542Z,1009.75
2018-09-04T03:52:24.649Z,1009.74
2018-09-04T03:53:24.528Z,1009.75
2018-09-04T03:54:24.488Z,1009.72
2018-09-04T03:55:24.472Z,1009.77
2018-09-04T03:56:24.471Z,1009.76
2018-09-04T03:57:24.431Z,1009.75
2018-09-04T03:58:24.464Z,1009.76
2018-09-04T03:59:24.439Z,1009.74
2018-09-04T04:00:24.462Z,1009.76
2018-09-04T04:01:24.388Z,1009.78
2018-09-04T04:02:24.415Z,1009.79
2018-09-04T04:03:24.399Z,1009.81
2018-09-04T04:04:24.417Z,1009.79
2018-09-04T04:05:24.351Z,1009.86
2018-09-04T04:06:24.357Z,1009.87
2018-09-04T04:07:24.384Z,1009.89
2018-09-04T04:08:24.335Z,1009.86
2018-09-04T04:09:24.301Z,1009.92
2018-09-04T04:10:24.404Z,1009.87
2018-09-04T04:11:27.310Z,1009.88
2018-09-04T04:12:24.292Z,1009.89
2018-09-04T04:13:24.291Z,1009.90
2018-09-04T04:14:24.346Z,1009.94
2018-09-04T04:15:24.234Z,1009.94
2018-09-04T04:16:24.281Z,1009.96
2018-09-04T04:17:24.210Z,1009.97
2018-09-04T04:18:24.263Z,1010.00
2018-09-04T04:19:24.178Z,1010.01
2018-09-04T04:20:24.159Z,1010.01
2018-09-04T04:21:24.211Z,1010.03
2018-09-04T04:22:24.237Z,1010.02
2018-09-04T04:23:24.186Z,1010.01
2018-09-04T04:24:24.162Z,1010.00
2018-09-04T04:25:24.113Z,1010.02
2018-09-04T04:26:24.110Z,1010.03
2018-09-04T04:27:24.188Z,1010.02
2018-09-04T04:28:24.151Z,1010.01
2018-09-04T04:29:24.042Z,1009.97
2018-09-04T04:30:24.075Z,1009.93
2018-09-04T04:31:24.062Z,1009.97
2018-09-04T04:32:24.024Z,1009.99
2018-09-04T04:33:24.068Z,1009.97
2018-09-04T04:34:24.076Z,1010.01
2018-09-04T04:35:24.071Z,1009.97
2018-09-04T04:36:24.015Z,1010.01
2018-09-04T04:37:24.081Z,1010.03
2018-09-04T04:38:24.022Z,1009.97
2018-09-04T04:39:23.971Z,1010.01
2018-09-04T04:40:23.955Z,1010.01
2018-09-04T04:41:23.944Z,1010.05
2018-09-04T04:42:23.955Z,1010.07
2018-09-04T04:43:23.917Z,1010.06
2018-09-04T04:44:23.942Z,1010.07
2018-09-04T04:45:24.014Z,1010.07
2018-09-04T04:46:23.922Z,1010.08
2018-09-04T04:47:23.926Z,1010.05
2018-09-04T04:48:23.972Z,1010.05
2018-09-04T04:49:23.861Z,1010.02
2018-09-04T04:50:23.858Z,1010.03
2018-09-04T04:51:28.659Z,1010.04
2018-09-04T04:52:26.865Z,1010.03
2018-09-04T04:53:23.778Z,1009.99
2018-09-04T04:54:23.804Z,1009.97
2018-09-04T04:55:23.818Z,1010.01
2018-09-04T04:56:23.804Z,1010.01
2018-09-04T04:57:23.811Z,1009.97
2018-09-04T04:58:23.788Z,1009.92
2018-09-04T04:59:23.823Z,1009.96
2018-09-04T05:00:23.836Z,1009.93
2018-09-04T05:01:23.715Z,1009.93
2018-09-04T05:02:23.759Z,1009.97
2018-09-04T05:03:23.777Z,1009.98
2018-09-04T05:04:23.683Z,1010.04
2018-09-04T05:05:23.724Z,1010.06
2018-09-04T05:06:23.670Z,1010.08
2018-09-04T05:07:23.636Z,1010.07
2018-09-04T05:08:23.658Z,1010.08
2018-09-04T05:09:23.714Z,1010.03
2018-09-04T05:10:23.648Z,1010.04
2018-09-04T05:11:23.674Z,1010.03
2018-09-04T05:12:23.593Z,1010.02
2018-09-04T05:13:23.596Z,1010.00
2018-09-04T05:14:23.612Z,1010.00
2018-09-04T05:15:23.600Z,1009.99
2018-09-04T05:16:23.567Z,1009.96
2018-09-04T05:17:23.557Z,1009.93
2018-09-04T05:18:23.563Z,1009.94
2018-09-04T05:19:23.536Z,1009.95
2018-09-04T05:20:23.510Z,1009.93
2018-09-04T05:21:23.555Z,1009.96
2018-09-04T05:22:23.481Z,1009.91
2018-09-04T05:23:23.494Z,1009.94
2018-09-04T05:24:23.495Z,1009.96
2018-09-04T05:25:23.451Z,1010.00
2018-09-04T05:26:23.464Z,1010.04
2018-09-04T05:27:27.282Z,1010.00
2018-09-04T05:28:23.486Z,1010.04
2018-09-04T05:29:23.451Z,1010.06
2018-09-04T05:30:23.396Z,1010.09
2018-09-04T05:31:23.420Z,1010.12
2018-09-04T05:32:23.360Z,1010.10
2018-09-04T05:33:23.456Z,1010.09
2018-09-04T05:34:23.334Z,1010.12
2018-09-04T05:35:23.351Z,1010.16
2018-09-04T05:36:23.349Z,1010.08
2018-09-04T05:37:23.369Z,1010.10
2018-09-04T05:44:04.761Z,1010.14
2018-09-04T05:44:45.499Z,1010.18
2018-09-04T05:45:44.077Z,1010.17
2018-09-04T05:46:43.998Z,1010.20
2018-09-04T05:47:44.262Z,1010.21
2018-09-04T05:48:43.779Z,1010.19
2018-09-04T05:49:45.024Z,1010.20
2018-09-04T05:50:43.885Z,1010.20
2018-09-04T05:51:48.562Z,1010.21
2018-09-04T05:52:43.854Z,1010.20
2018-09-04T05:53:44.912Z,1010.22
2018-09-04T05:54:43.730Z,1010.25
2018-09-04T05:55:43.774Z,1010.25
2018-09-04T05:56:43.785Z,1010.29
2018-09-04T05:57:44.138Z,1010.31
2018-09-04T05:58:43.734Z,1010.27
2018-09-04T05:59:43.694Z,1010.33
2018-09-04T06:00:43.669Z,1010.36
2018-09-04T06:01:43.646Z,1010.35
2018-09-04T06:02:43.734Z,1010.38
2018-09-04T06:03:43.701Z,1010.40
2018-09-04T06:04:43.650Z,1010.40
2018-09-04T06:05:43.675Z,1010.40
2018-09-04T06:06:43.587Z,1010.37
2018-09-04T06:07:43.570Z,1010.43
2018-09-04T06:08:43.606Z,1010.42
2018-09-04T06:09:43.554Z,1010.43
2018-09-04T06:10:43.599Z,1010.34
2018-09-04T06:11:43.548Z,1010.36
2018-09-04T06:12:43.555Z,1010.36
2018-09-04T06:13:43.602Z,1010.35
2018-09-04T06:14:43.746Z,1010.30
2018-09-04T06:15:43.791Z,1010.32
2018-09-04T06:16:43.534Z,1010.27
2018-09-04T06:17:43.492Z,1010.29
2018-09-04T06:18:43.469Z,1010.32
2018-09-04T06:19:43.499Z,1010.36
2018-09-04T06:20:43.516Z,1010.32
2018-09-04T06:24:23.117Z,1010.34
2018-09-04T06:25:01.231Z,1010.37
2018-09-04T06:26:01.253Z,1010.39
2018-09-04T06:27:01.170Z,1010.40
2018-09-04T06:28:01.174Z,1010.32
2018-09-04T06:29:01.183Z,1010.36
2018-09-04T06:30:01.160Z,1010.33
2018-09-04T06:31:04.461Z,1010.29
2018-09-04T06:32:02.218Z,1010.30
2018-09-04T06:33:01.185Z,1010.26
2018-09-04T06:34:01.139Z,1010.27
2018-09-04T06:35:01.110Z,1010.26
2018-09-04T06:36:01.105Z,1010.26
2018-09-04T06:37:01.136Z,1010.29
2018-09-04T06:38:01.105Z,1010.28
2018-09-04T06:39:01.070Z,1010.28
2018-09-04T06:40:01.047Z,1010.29
2018-09-04T06:41:01.135Z,1010.31
2018-09-04T06:42:01.014Z,1010.26
2018-09-04T06:43:01.031Z,1010.32
2018-09-04T06:44:01.158Z,1010.37
2018-09-04T06:45:01.284Z,1010.38
2018-09-04T06:46:01.037Z,1010.35
2018-09-04T06:47:00.957Z,1010.39
2018-09-04T06:48:00.931Z,1010.42
2018-09-04T06:49:01.070Z,1010.39
2018-09-04T06:50:01.000Z,1010.43
2018-09-04T06:51:00.912Z,1010.35
2018-09-04T06:52:00.900Z,1010.32
2018-09-04T06:53:05.737Z,1010.32
2018-09-04T06:54:00.911Z,1010.36
2018-09-04T06:55:00.855Z,1010.30
2018-09-04T06:56:00.882Z,1010.36
2018-09-04T06:57:00.883Z,1010.32
2018-09-04T06:58:01.023Z,1010.33
2018-09-04T06:59:02.550Z,1010.33
2018-09-04T07:00:00.940Z,1010.34
2018-09-04T07:01:00.838Z,1010.31
2018-09-04T07:02:00.827Z,1010.32
2018-09-04T07:03:00.800Z,1010.36
2018-09-04T07:04:00.767Z,1010.38
2018-09-04T07:05:00.837Z,1010.35
2018-09-04T07:06:00.877Z,1010.42
2018-09-04T07:07:00.880Z,1010.41
2018-09-04T07:08:02.004Z,1010.39
2018-09-04T07:09:00.732Z,1010.39
2018-09-04T07:10:03.137Z,1010.42
2018-09-04T07:11:00.690Z,1010.39
2018-09-04T07:12:00.751Z,1010.41
2018-09-04T07:13:01.423Z,1010.39
2018-09-04T07:14:00.710Z,1010.35
2018-09-04T07:16:01.989Z,1010.31
2018-09-04T07:17:01.782Z,1010.30
2018-09-04T07:20:03.727Z,1010.39
2018-09-04T07:23:23.493Z,1010.44
2018-09-04T07:28:37.758Z,1010.46
2018-09-04T07:29:37.525Z,1010.44
2018-09-04T07:30:53.390Z,1010.48
2018-09-04T07:33:30.874Z,1010.44
2018-09-04T07:34:11.795Z,1010.39
2018-09-04T07:35:11.214Z,1010.41
2018-09-04T07:36:13.310Z,1010.40
2018-09-04T07:37:10.316Z,1010.42
2018-09-04T07:38:18.664Z,1010.43
2018-09-04T07:39:10.233Z,1010.38
2018-09-04T07:40:10.192Z,1010.35
2018-09-04T07:41:10.224Z,1010.32
2018-09-04T07:42:10.205Z,1010.32
2018-09-04T07:43:10.148Z,1010.34
2018-09-04T07:44:10.149Z,1010.31
2018-09-04T07:45:13.118Z,1010.30
2018-09-04T07:46:10.160Z,1010.33
2018-09-04T07:47:10.645Z,1010.33
2018-09-04T07:48:10.219Z,1010.34
2018-09-04T07:50:19.119Z,1010.35
2018-09-04T07:51:19.406Z,1010.38
2018-09-04T07:52:19.131Z,1010.36
2018-09-04T07:53:18.942Z,1010.37
2018-09-04T07:54:23.672Z,1010.39
2018-09-04T07:55:19.313Z,1010.31
2018-09-04T07:57:28.714Z,1010.35
2018-09-04T07:58:28.165Z,1010.36
2018-09-04T07:59:28.484Z,1010.40
2018-09-04T08:00:27.747Z,1010.40
2018-09-04T08:01:27.776Z,1010.41
2018-09-04T08:02:27.843Z,1010.38
2018-09-04T08:03:27.743Z,1010.40
2018-09-04T08:04:27.788Z,1010.39
2018-09-04T08:05:27.825Z,1010.41
2018-09-04T08:06:27.760Z,1010.39
2018-09-04T08:07:27.761Z,1010.38
2018-09-04T08:08:27.664Z,1010.38
2018-09-04T08:09:29.765Z,1010.43
2018-09-04T08:10:28.325Z,1010.41
2018-09-04T08:16:39.412Z,1010.40
2018-09-04T08:17:35.792Z,1010.35
2018-09-04T08:18:35.467Z,1010.36
2018-09-04T08:19:35.344Z,1010.33
2018-09-04T08:20:37.019Z,1010.35
2018-09-04T08:30:01.988Z,1010.41
2018-09-04T08:31:01.855Z,1010.36
2018-09-04T08:32:05.763Z,1010.38
2018-09-04T08:33:01.702Z,1010.33
2018-09-04T08:34:01.674Z,1010.37
2018-09-04T08:35:02.225Z,1010.33
2018-09-04T08:36:01.632Z,1010.35
2018-09-04T08:37:02.314Z,1010.37
2018-09-04T08:38:01.734Z,1010.42
2018-09-04T08:41:52.306Z,1010.38
2018-09-04T08:42:49.674Z,1010.45
2018-09-04T08:43:49.794Z,1010.42
2018-09-04T08:44:49.656Z,1010.39
2018-09-04T08:47:00.149Z,1010.35
2018-09-04T08:48:00.068Z,1010.42
2018-09-04T08:49:02.695Z,1010.39
2018-09-04T08:49:59.904Z,1010.38
2018-09-04T08:50:59.940Z,1010.39
2018-09-04T08:51:59.830Z,1010.41
2018-09-04T08:52:59.853Z,1010.39
2018-09-04T08:53:59.853Z,1010.40
2018-09-04T08:55:04.659Z,1010.38
2018-09-04T08:56:01.270Z,1010.43
2018-09-04T08:56:59.794Z,1010.39
2018-09-04T08:58:02.874Z,1010.39
2018-09-04T08:58:59.738Z,1010.41
2018-09-04T08:59:59.837Z,1010.42
2018-09-04T09:00:59.716Z,1010.43
2018-09-04T09:01:59.742Z,1010.42
2018-09-04T09:02:59.787Z,1010.41
2018-09-04T09:03:59.765Z,1010.40
2018-09-04T09:04:59.720Z,1010.45
2018-09-04T09:05:59.822Z,1010.43
2018-09-04T09:06:59.718Z,1010.46
2018-09-04T09:07:59.757Z,1010.45
2018-09-04T09:09:13.685Z,1010.43
